Time;durP1;ratioP1;P1;durP2;ratioP2;P2;SDS_P1;SDS_P2;PMS_P1;PMS_P2;Temp;Humidity;BMP_temperature;BMP_pressure;BME280_temperature;BME280_humidity;BME280_pressure;Samples;Min_cycle;Max_cycle;Signal;HPM_P1;HPM_P2
2024/01/31 00:04:55;;;;;;;41.55;39.35;;;6.80;99.90;;;;;;12591090;28;20044;-78
2024/01/31 00:10:58;;;;;;;38.13;36.03;;;6.70;99.90;;;;;;12612863;28;20078;-78
2024/01/31 00:17:00;;;;;;;35.05;33.25;;;6.70;99.90;;;;;;12571442;28;20393;-78
2024/01/31 00:23:02;;;;;;;41.45;39.22;;;6.60;99.90;;;;;;12621809;28;20174;-78
2024/01/31 00:29:04;;;;;;;47.55;45.15;;;6.60;99.90;;;;;;12613970;28;20052;-79
2024/01/31 00:35:07;;;;;;;41.50;39.33;;;6.50;99.90;;;;;;12623336;28;20056;-79
2024/01/31 00:41:09;;;;;;;38.85;36.55;;;6.30;99.90;;;;;;12608245;28;20054;-79
2024/01/31 00:47:11;;;;;;;40.85;38.75;;;6.30;99.90;;;;;;12621655;28;20416;-79
2024/01/31 00:53:13;;;;;;;40.90;38.75;;;6.30;99.90;;;;;;12609856;28;20375;-80
2024/01/31 00:59:15;;;;;;;43.53;41.08;;;6.20;99.90;;;;;;12629333;28;20476;-78
2024/01/31 01:05:17;;;;;;;41.92;39.72;;;6.20;99.90;;;;;;12602619;28;20087;-79
2024/01/31 01:11:19;;;;;;;40.75;38.60;;;6.30;99.90;;;;;;12620838;28;20480;-78
2024/01/31 01:17:21;;;;;;;41.35;39.25;;;6.20;99.90;;;;;;12620957;28;20052;-79
2024/01/31 01:23:24;;;;;;;44.45;41.95;;;6.10;99.90;;;;;;12617280;28;20044;-79
2024/01/31 01:29:26;;;;;;;45.08;42.72;;;6.00;99.90;;;;;;12609026;28;20051;-80
2024/01/31 01:35:29;;;;;;;44.42;41.92;;;5.90;99.90;;;;;;12614476;28;20099;-79
2024/01/31 01:41:30;;;;;;;46.13;43.63;;;5.90;99.90;;;;;;12603906;28;20489;-82
2024/01/31 01:47:37;;;;;;;59.70;56.72;;;5.80;99.90;;;;;;12604588;28;20505;-85
2024/01/31 01:53:39;;;;;;;78.45;74.53;;;5.80;99.90;;;;;;12641939;28;20059;-83
2024/01/31 01:59:42;;;;;;;72.18;68.47;;;5.80;99.90;;;;;;12616129;28;20044;-84
2024/01/31 02:05:45;;;;;;;61.95;58.85;;;5.70;99.90;;;;;;12619696;28;20124;-83
2024/01/31 02:11:48;;;;;;;55.00;52.10;;;5.60;99.90;;;;;;12637746;28;20048;-81
2024/01/31 02:17:50;;;;;;;48.83;46.22;;;5.50;99.90;;;;;;12602728;28;20067;-83
2024/01/31 02:23:52;;;;;;;40.85;38.67;;;5.50;99.90;;;;;;12625247;28;20052;-82
2024/01/31 02:29:53;;;;;;;36.95;35.13;;;5.50;99.90;;;;;;12628737;28;20063;-83
2024/01/31 02:35:55;;;;;;;35.45;33.53;;;5.50;99.90;;;;;;12608169;28;20063;-85
2024/01/31 02:41:57;;;;;;;34.78;32.83;;;5.50;99.90;;;;;;12619187;28;20146;-83
2024/01/31 02:48:01;;;;;;;34.50;32.70;;;5.50;99.90;;;;;;12586829;28;20056;-82
2024/01/31 02:54:03;;;;;;;37.67;35.47;;;5.50;99.90;;;;;;12570608;28;20056;-83
2024/01/31 03:00:06;;;;;;;35.67;33.70;;;5.40;99.90;;;;;;12612998;28;20143;-80
2024/01/31 03:06:09;;;;;;;29.40;27.83;;;5.50;99.90;;;;;;12600602;28;20048;-82
2024/01/31 03:12:10;;;;;;;26.65;25.15;;;5.50;99.90;;;;;;12588297;28;20052;-81
2024/01/31 03:18:14;;;;;;;25.95;24.65;;;5.40;99.90;;;;;;12618980;28;20048;-82
2024/01/31 03:24:16;;;;;;;27.15;25.67;;;5.40;99.90;;;;;;12605066;28;20412;-83
2024/01/31 03:30:18;;;;;;;25.17;23.77;;;5.40;99.90;;;;;;12615353;28;20147;-82
2024/01/31 03:36:20;;;;;;;26.15;24.85;;;5.30;99.90;;;;;;12632549;28;20062;-82
2024/01/31 03:42:22;;;;;;;31.20;29.60;;;5.30;99.90;;;;;;12601710;28;20076;-80
2024/01/31 03:48:24;;;;;;;24.25;22.75;;;5.30;99.90;;;;;;12598679;28;20408;-82
2024/01/31 03:54:26;;;;;;;26.45;25.00;;;5.30;99.90;;;;;;12574616;28;20086;-83
2024/01/31 04:00:28;;;;;;;27.33;25.73;;;5.30;99.90;;;;;;12612929;28;20063;-82
2024/01/31 04:06:31;;;;;;;26.05;24.50;;;5.20;99.90;;;;;;12629067;28;20244;-76
2024/01/31 04:12:33;;;;;;;25.65;24.15;;;5.10;99.90;;;;;;12623806;28;20537;-80
2024/01/31 04:18:35;;;;;;;29.05;27.55;;;5.10;99.90;;;;;;12634990;28;20056;-77
2024/01/31 04:24:37;;;;;;;26.00;24.60;;;5.10;99.90;;;;;;12633999;28;20068;-80
2024/01/31 04:30:39;;;;;;;18.88;17.52;;;5.00;99.90;;;;;;12643922;28;20059;-78
2024/01/31 04:36:41;;;;;;;17.33;16.25;;;4.90;99.90;;;;;;12623091;28;20055;-78
2024/01/31 04:42:44;;;;;;;15.98;15.07;;;5.00;99.90;;;;;;12612372;28;20056;-77
2024/01/31 04:48:48;;;;;;;15.93;15.13;;;4.90;99.90;;;;;;12632953;28;20416;-77
2024/01/31 04:54:51;;;;;;;18.13;17.02;;;5.00;99.90;;;;;;12611352;28;20053;-76
2024/01/31 05:00:52;;;;;;;18.08;16.98;;;5.00;99.90;;;;;;12614157;28;20455;-77
2024/01/31 05:06:55;;;;;;;17.92;16.42;;;5.00;99.90;;;;;;12631368;28;20048;-76
2024/01/31 05:12:56;;;;;;;17.25;16.35;;;5.00;99.90;;;;;;12617231;28;20079;-77
2024/01/31 05:18:58;;;;;;;18.10;17.10;;;5.00;99.90;;;;;;12638440;28;20592;-76
2024/01/31 05:25:00;;;;;;;20.60;19.50;;;5.00;99.90;;;;;;12615392;28;20055;-77
2024/01/31 05:31:03;;;;;;;20.88;19.77;;;5.00;99.90;;;;;;12637156;28;20059;-79
2024/01/31 05:37:06;;;;;;;19.50;18.50;;;4.90;99.90;;;;;;12628329;28;20064;-78
2024/01/31 05:43:08;;;;;;;19.48;18.48;;;4.90;99.90;;;;;;12615131;28;21336;-77
2024/01/31 05:49:10;;;;;;;20.70;19.60;;;5.00;99.90;;;;;;12612455;28;20189;-77
2024/01/31 05:55:14;;;;;;;18.63;17.70;;;5.00;99.90;;;;;;12628003;28;20063;-76
2024/01/31 06:01:16;;;;;;;17.52;16.63;;;4.90;99.90;;;;;;12630354;28;20056;-77
2024/01/31 06:07:19;;;;;;;20.55;19.55;;;5.00;99.90;;;;;;12633299;28;20056;-78
2024/01/31 06:13:21;;;;;;;22.70;21.48;;;4.90;99.90;;;;;;12634030;28;20056;-76
2024/01/31 06:19:25;;;;;;;25.05;23.85;;;5.10;99.90;;;;;;12635681;28;20177;-80
2024/01/31 06:25:27;;;;;;;26.10;24.70;;;5.00;99.90;;;;;;12598987;28;20056;-80
2024/01/31 06:31:29;;;;;;;30.95;29.35;;;4.90;99.90;;;;;;12600604;28;20086;-78
2024/01/31 06:37:31;;;;;;;37.78;35.55;;;4.80;99.90;;;;;;12583637;28;20056;-78
2024/01/31 06:43:33;;;;;;;42.63;40.42;;;4.70;99.90;;;;;;12631496;28;20072;-77
2024/01/31 06:49:35;;;;;;;40.72;38.65;;;4.60;99.90;;;;;;12592729;28;20102;-78
2024/01/31 06:55:37;;;;;;;35.97;34.08;;;4.60;99.90;;;;;;12572096;28;20071;-78
2024/01/31 07:01:39;;;;;;;33.92;32.22;;;4.60;99.90;;;;;;12610859;28;20146;-79
2024/01/31 07:07:41;;;;;;;35.08;33.22;;;4.80;99.90;;;;;;12609510;28;20048;-78
2024/01/31 07:13:44;;;;;;;37.92;36.03;;;4.80;99.90;;;;;;12596071;28;20736;-79
2024/01/31 07:19:45;;;;;;;39.40;37.30;;;4.70;99.90;;;;;;12617490;28;20071;-79
2024/01/31 07:25:47;;;;;;;41.70;39.58;;;4.60;99.90;;;;;;12620252;28;20139;-79
2024/01/31 07:31:49;;;;;;;45.75;43.35;;;4.60;99.90;;;;;;12620864;28;20060;-79
2024/01/31 07:37:51;;;;;;;52.22;49.20;;;4.70;99.90;;;;;;12615367;28;20052;-79
2024/01/31 07:43:53;;;;;;;55.00;52.20;;;4.60;99.90;;;;;;12625451;28;20051;-79
2024/01/31 07:49:55;;;;;;;51.95;49.05;;;4.60;99.90;;;;;;12584012;28;20067;-79
2024/01/31 07:55:57;;;;;;;51.40;48.50;;;4.70;99.90;;;;;;12578395;28;20083;-79
2024/01/31 08:02:03;;;;;;;38.13;36.05;;;4.70;99.90;;;;;;12582533;28;20048;-79
2024/01/31 08:08:05;;;;;;;25.40;24.10;;;4.80;99.90;;;;;;12599502;28;20051;-78
2024/01/31 08:14:07;;;;;;;22.58;21.17;;;4.80;99.90;;;;;;12604148;28;20079;-79
2024/01/31 08:20:10;;;;;;;25.02;23.42;;;4.90;99.90;;;;;;12618611;28;20060;-79
2024/01/31 08:26:18;;;;;;;23.65;22.45;;;5.00;99.90;;;;;;12606988;28;20067;-79
2024/01/31 08:32:20;;;;;;;23.40;22.20;;;4.90;99.90;;;;;;12619798;28;20056;-79
2024/01/31 08:38:23;;;;;;;25.55;24.25;;;5.00;99.90;;;;;;12602708;28;20048;-79
2024/01/31 08:44:25;;;;;;;25.50;24.13;;;5.10;99.90;;;;;;12607936;28;20048;-78
2024/01/31 08:50:27;;;;;;;29.98;28.48;;;5.10;99.90;;;;;;12610032;28;20515;-77
2024/01/31 08:56:29;;;;;;;30.85;29.25;;;5.00;99.90;;;;;;12574997;28;20134;-78
2024/01/31 09:02:31;;;;;;;27.00;25.55;;;4.90;99.90;;;;;;12586848;28;20053;-77
2024/01/31 09:08:33;;;;;;;21.33;20.23;;;5.10;99.90;;;;;;12589360;28;20135;-78
2024/01/31 09:14:35;;;;;;;22.63;21.38;;;4.90;99.90;;;;;;12595211;28;20045;-79
2024/01/31 09:20:38;;;;;;;20.23;18.85;;;4.90;99.90;;;;;;12587334;28;20060;-78
2024/01/31 09:26:40;;;;;;;21.13;19.95;;;4.90;99.90;;;;;;12580874;28;20045;-79
2024/01/31 09:32:42;;;;;;;22.13;20.83;;;5.00;99.90;;;;;;12581926;28;20405;-77
2024/01/31 09:38:47;;;;;;;21.05;19.95;;;5.00;99.90;;;;;;12580466;28;20187;-77
2024/01/31 09:44:50;;;;;;;;;;;5.00;99.90;;;;;;12586559;28;20044;-78
2024/01/31 09:50:51;;;;;;;21.85;20.65;;;5.00;99.90;;;;;;12585338;28;19921;-79
2024/01/31 09:56:55;;;;;;;23.73;22.52;;;5.00;99.90;;;;;;12640626;28;20064;-78
2024/01/31 10:02:57;;;;;;;21.83;20.45;;;5.00;99.90;;;;;;12609366;28;20052;-79
2024/01/31 10:09:01;;;;;;;22.23;21.02;;;5.00;99.90;;;;;;12606710;28;20075;-80
2024/01/31 10:15:04;;;;;;;30.67;28.47;;;5.10;99.90;;;;;;12606622;28;20055;-78
2024/01/31 10:21:06;;;;;;;32.75;30.73;;;5.10;99.90;;;;;;12625792;28;20052;-79
2024/01/31 10:27:08;;;;;;;31.65;29.95;;;5.10;99.90;;;;;;12611389;28;20084;-79
2024/01/31 10:33:12;;;;;;;40.58;37.90;;;5.20;99.90;;;;;;12596282;28;20056;-79
2024/01/31 10:39:16;;;;;;;45.92;43.03;;;5.20;99.90;;;;;;12596919;28;20087;-78
2024/01/31 10:45:19;;;;;;;53.40;49.45;;;5.30;99.90;;;;;;12614997;28;20954;-79
2024/01/31 10:51:23;;;;;;;48.70;44.60;;;5.30;99.90;;;;;;12611892;28;20067;-79
2024/01/31 10:57:26;;;;;;;41.22;38.80;;;5.40;99.90;;;;;;12599318;28;20510;-79
2024/01/31 11:03:28;;;;;;;43.53;40.92;;;5.50;99.90;;;;;;12602297;28;20048;-79
2024/01/31 11:09:31;;;;;;;33.03;31.40;;;5.50;99.90;;;;;;12593236;28;20086;-80
2024/01/31 11:15:37;;;;;;;36.80;35.00;;;5.50;99.90;;;;;;12589178;28;20048;-82
2024/01/31 11:21:39;;;;;;;28.58;27.17;;;5.50;99.90;;;;;;12575252;28;20499;-79
2024/01/31 11:27:41;;;;;;;30.13;28.50;;;5.60;99.90;;;;;;12593410;28;20083;-79
2024/01/31 11:33:44;;;;;;;21.17;20.13;;;5.70;99.90;;;;;;12603039;28;20062;-81
2024/01/31 11:39:46;;;;;;;20.63;19.42;;;5.80;99.90;;;;;;12592174;28;20420;-79
2024/01/31 11:45:48;;;;;;;33.90;32.00;;;5.90;99.90;;;;;;12600310;28;20052;-80
2024/01/31 11:51:50;;;;;;;33.20;30.85;;;5.70;99.90;;;;;;12596555;28;20060;-79
2024/01/31 11:57:52;;;;;;;22.55;21.15;;;5.70;99.90;;;;;;12602888;28;20053;-79
2024/01/31 12:03:54;;;;;;;22.25;20.77;;;5.80;99.90;;;;;;12611136;28;20083;-79
2024/01/31 12:09:56;;;;;;;21.67;20.38;;;5.90;99.90;;;;;;12603374;28;20048;-79
2024/01/31 12:15:59;;;;;;;25.33;23.98;;;5.90;99.90;;;;;;12603433;28;20067;-83
2024/01/31 12:22:04;;;;;;;20.70;19.50;;;5.90;99.90;;;;;;12587733;28;20056;-83
2024/01/31 12:28:06;;;;;;;25.00;23.65;;;6.00;99.90;;;;;;12600432;28;20052;-83
2024/01/31 12:34:09;;;;;;;31.38;29.77;;;6.10;99.90;;;;;;12603675;28;20067;-83
2024/01/31 12:40:12;;;;;;;32.72;31.02;;;6.00;99.90;;;;;;12601776;28;20064;-80
2024/01/31 12:46:14;;;;;;;31.33;29.67;;;6.10;99.90;;;;;;12593849;28;20503;-83
2024/01/31 12:52:16;;;;;;;27.75;26.35;;;6.10;99.90;;;;;;12625113;28;20056;-83
2024/01/31 12:58:18;;;;;;;34.70;32.90;;;6.30;99.90;;;;;;12595879;28;20052;-83
2024/01/31 13:04:21;;;;;;;31.60;29.80;;;6.30;98.50;;;;;;12607980;28;20044;-83
2024/01/31 13:10:24;;;;;;;26.63;25.23;;;6.30;99.90;;;;;;12593626;28;20165;-83
2024/01/31 13:16:26;;;;;;;28.77;27.27;;;6.40;92.50;;;;;;12619118;28;20055;-83
2024/01/31 13:22:27;;;;;;;33.58;31.77;;;6.40;89.00;;;;;;12602039;28;20496;-82
2024/01/31 13:28:29;;;;;;;30.85;29.25;;;6.40;36.50;;;;;;12602235;28;20496;-79
2024/01/31 13:34:31;;;;;;;35.00;32.88;;;6.40;75.20;;;;;;12593866;28;20055;-79
2024/01/31 13:40:33;;;;;;;34.15;32.05;;;6.50;62.90;;;;;;12612832;28;20508;-79
2024/01/31 13:46:38;;;;;;;31.48;29.77;;;6.40;74.80;;;;;;12615530;28;20040;-83
2024/01/31 13:52:40;;;;;;;31.77;30.08;;;6.70;79.70;;;;;;12611335;28;20052;-79
2024/01/31 13:58:43;;;;;;;32.15;30.27;;;6.60;85.50;;;;;;12598247;28;20068;-79
2024/01/31 14:04:45;;;;;;;34.55;32.45;;;6.50;91.30;;;;;;12602144;28;20438;-79
2024/01/31 14:10:47;;;;;;;30.48;28.77;;;6.50;86.80;;;;;;12615394;28;20071;-80
2024/01/31 14:16:51;;;;;;;30.58;28.58;;;6.60;82.60;;;;;;12610527;28;20530;-79
2024/01/31 14:22:53;;;;;;;35.35;32.90;;;6.60;99.90;;;;;;12610501;28;20055;-78
2024/01/31 14:29:15;;;;;;;31.95;30.02;;;6.60;99.90;;;;;;12624014;28;20204;-78
2024/01/31 14:35:17;;;;;;;41.30;38.38;;;6.50;95.00;;;;;;12612445;28;20055;-78
2024/01/31 14:41:19;;;;;;;36.70;34.25;;;6.40;99.90;;;;;;12614850;28;20049;-77
2024/01/31 14:47:21;;;;;;;32.60;30.48;;;6.40;99.90;;;;;;12602995;28;20052;-78
2024/01/31 14:53:23;;;;;;;33.55;31.02;;;6.30;99.90;;;;;;12578631;28;20060;-77
2024/01/31 14:59:26;;;;;;;31.05;29.05;;;6.40;99.90;;;;;;12585151;28;20052;-78
2024/01/31 15:05:28;;;;;;;33.20;30.90;;;6.40;99.90;;;;;;12602763;28;20105;-78
2024/01/31 15:11:30;;;;;;;29.92;27.80;;;6.40;99.90;;;;;;12609191;28;20048;-77
2024/01/31 15:17:32;;;;;;;28.60;26.63;;;6.30;99.90;;;;;;12629700;28;20181;-77
2024/01/31 15:23:34;;;;;;;27.70;25.80;;;6.30;99.90;;;;;;12597710;28;20052;-78
2024/01/31 15:29:36;;;;;;;28.95;26.95;;;6.30;99.90;;;;;;12600520;28;20040;-77
2024/01/31 15:35:38;;;;;;;30.63;28.38;;;6.30;99.90;;;;;;12623417;28;20426;-79
2024/01/31 15:41:41;;;;;;;30.80;28.48;;;6.20;99.90;;;;;;12620012;28;20427;-79
2024/01/31 15:47:43;;;;;;;32.22;29.73;;;6.20;99.90;;;;;;12603337;28;20045;-78
2024/01/31 15:53:47;;;;;;;31.20;28.75;;;6.20;99.90;;;;;;12548067;28;20049;-78
2024/01/31 15:59:49;;;;;;;31.27;28.80;;;6.10;99.90;;;;;;12526831;28;20064;-82
2024/01/31 16:05:51;;;;;;;31.95;29.25;;;6.20;99.90;;;;;;12508630;28;20052;-79
2024/01/31 16:11:56;;;;;;;31.67;29.10;;;6.10;99.90;;;;;;12521637;28;20064;-78
2024/01/31 16:17:58;;;;;;;30.92;28.20;;;6.10;99.90;;;;;;12524915;28;20505;-79
2024/01/31 16:24:01;;;;;;;33.70;30.85;;;6.20;99.90;;;;;;12538804;28;20061;-78
2024/01/31 16:30:04;;;;;;;31.85;29.23;;;6.30;99.90;;;;;;12531199;28;20049;-78
2024/01/31 16:36:06;;;;;;;31.17;28.27;;;6.20;99.90;;;;;;12532075;28;20065;-78
2024/01/31 16:42:10;;;;;;;30.25;27.60;;;6.30;99.90;;;;;;12517867;28;20104;-78
2024/01/31 16:48:12;;;;;;;29.90;27.15;;;6.20;99.90;;;;;;12510788;28;20553;-82
2024/01/31 16:54:15;;;;;;;33.28;30.38;;;6.30;99.90;;;;;;12526732;28;20451;-83
2024/01/31 17:00:17;;;;;;;31.50;28.83;;;6.30;99.90;;;;;;12491525;28;20088;-82
2024/01/31 17:06:19;;;;;;;32.95;30.25;;;6.30;99.90;;;;;;12512882;28;20349;-82
2024/01/31 17:12:22;;;;;;;31.92;29.17;;;6.30;99.90;;;;;;12505407;28;20057;-81
2024/01/31 17:18:24;;;;;;;26.77;24.65;;;6.30;99.90;;;;;;12516346;28;20049;-82
2024/01/31 17:24:27;;;;;;;26.52;24.33;;;6.30;99.90;;;;;;12507323;28;20052;-81
2024/01/31 17:30:29;;;;;;;26.55;24.35;;;6.20;99.90;;;;;;12515518;28;20475;-78
2024/01/31 17:36:31;;;;;;;26.33;24.23;;;6.20;99.90;;;;;;12511005;28;20049;-77
2024/01/31 17:42:33;;;;;;;24.98;22.98;;;6.10;99.20;;;;;;12510425;28;20101;-78
2024/01/31 17:48:35;;;;;;;26.77;24.58;;;6.20;74.80;;;;;;12492789;28;20830;-78
2024/01/31 17:54:42;;;;;;;24.23;22.23;;;6.10;99.90;;;;;;12556381;28;20546;-77
2024/01/31 18:00:44;;;;;;;24.58;22.67;;;6.10;98.60;;;;;;12658577;28;20365;-82
2024/01/31 18:06:47;;;;;;;23.10;21.20;;;6.00;57.30;;;;;;12624244;28;20089;-78
2024/01/31 18:12:49;;;;;;;21.63;20.10;;;6.00;62.30;;;;;;12618551;28;20053;-80
2024/01/31 18:18:51;;;;;;;21.70;20.10;;;6.00;47.60;;;;;;12614122;28;20504;-80
2024/01/31 18:24:53;;;;;;;21.98;20.35;;;6.00;56.20;;;;;;12610142;28;20052;-78
2024/01/31 18:30:56;;;;;;;23.35;21.35;;;5.90;78.70;;;;;;12604222;28;20055;-77
2024/01/31 18:36:59;;;;;;;24.02;22.00;;;5.90;92.00;;;;;;12590120;28;20048;-77
2024/01/31 18:43:01;;;;;;;23.75;21.42;;;5.90;99.90;;;;;;12591265;28;20060;-80
2024/01/31 18:49:04;;;;;;;23.23;21.10;;;5.90;99.90;;;;;;12603601;28;20053;-77
2024/01/31 18:55:06;;;;;;;20.15;18.55;;;5.80;99.90;;;;;;12606019;28;20056;-78
2024/01/31 19:01:08;;;;;;;20.20;18.73;;;5.80;99.90;;;;;;12618329;28;20082;-79
2024/01/31 19:07:10;;;;;;;17.85;16.48;;;5.90;99.90;;;;;;12615017;28;20075;-78
2024/01/31 19:13:12;;;;;;;21.02;19.40;;;5.90;99.90;;;;;;12588084;28;20499;-78
2024/01/31 19:19:14;;;;;;;19.50;17.90;;;5.90;98.40;;;;;;12617725;28;20056;-82
2024/01/31 19:25:17;;;;;;;20.77;19.08;;;5.70;84.60;;;;;;12594907;28;20544;-83
2024/01/31 19:31:20;;;;;;;19.83;17.90;;;5.70;94.10;;;;;;12615066;28;20076;-83
2024/01/31 19:37:22;;;;;;;18.80;17.23;;;5.60;73.60;;;;;;12601901;28;20496;-82
2024/01/31 19:43:24;;;;;;;20.55;18.70;;;5.60;98.30;;;;;;12609928;28;20510;-81
2024/01/31 19:49:26;;;;;;;20.30;18.30;;;5.60;84.80;;;;;;12588496;28;20696;-82
2024/01/31 19:55:28;;;;;;;20.40;18.50;;;5.60;93.40;;;;;;12609706;28;20067;-81
2024/01/31 20:01:31;;;;;;;19.77;18.02;;;5.60;82.60;;;;;;12611682;28;20064;-81
2024/01/31 20:07:32;;;;;;;17.95;16.60;;;5.70;77.00;;;;;;12601896;28;20057;-82
2024/01/31 20:13:35;;;;;;;18.52;16.90;;;5.70;88.10;;;;;;12586380;28;20079;-82
2024/01/31 20:19:37;;;;;;;18.95;17.35;;;5.70;93.40;;;;;;12596480;28;20059;-81
2024/01/31 20:25:39;;;;;;;18.90;17.40;;;5.70;93.10;;;;;;12599762;28;20467;-82
2024/01/31 20:31:41;;;;;;;17.15;15.75;;;5.70;95.80;;;;;;12637520;28;20083;-79
2024/01/31 20:37:43;;;;;;;16.13;14.82;;;5.70;99.90;;;;;;12581617;28;20052;-80
2024/01/31 20:43:44;;;;;;;19.30;17.60;;;5.70;99.90;;;;;;12604961;28;20523;-81
2024/01/31 20:49:46;;;;;;;17.08;15.77;;;5.70;94.90;;;;;;12601397;28;20048;-81
2024/01/31 20:55:49;;;;;;;19.58;17.88;;;5.70;99.90;;;;;;12582899;28;20048;-82
2024/01/31 21:01:51;;;;;;;18.38;16.98;;;5.70;99.90;;;;;;12566979;28;20049;-82
2024/01/31 21:07:53;;;;;;;18.25;16.95;;;5.70;99.90;;;;;;12557621;28;20144;-81
2024/01/31 21:13:54;;;;;;;17.75;16.48;;;5.60;99.90;;;;;;12554984;28;20432;-83
2024/01/31 21:19:56;;;;;;;17.48;16.17;;;5.60;99.90;;;;;;12566374;28;21127;-80
2024/01/31 21:25:59;;;;;;;16.42;14.98;;;5.60;99.90;;;;;;12581288;28;20984;-82
2024/01/31 21:32:01;;;;;;;16.80;15.60;;;5.60;99.90;;;;;;12573466;28;20087;-82
2024/01/31 21:38:03;;;;;;;17.05;15.75;;;5.60;99.90;;;;;;12579772;28;20091;-82
2024/01/31 21:44:05;;;;;;;16.00;14.63;;;5.60;99.90;;;;;;12557479;28;20060;-82
2024/01/31 21:50:08;;;;;;;16.35;15.15;;;5.60;99.90;;;;;;12579804;28;20634;-81
2024/01/31 21:56:16;;;;;;;15.80;14.60;;;5.60;99.90;;;;;;12574990;28;20064;-82
2024/01/31 22:02:18;;;;;;;17.58;16.13;;;5.60;99.90;;;;;;12571741;28;20080;-80
2024/01/31 22:08:20;;;;;;;16.23;14.93;;;5.70;99.90;;;;;;12568780;28;20075;-81
2024/01/31 22:14:22;;;;;;;14.60;13.50;;;5.80;99.90;;;;;;12561103;28;20056;-80
2024/01/31 22:20:24;;;;;;;16.10;14.80;;;5.80;99.90;;;;;;12576229;28;20139;-82
2024/01/31 22:26:26;;;;;;;16.60;15.27;;;5.80;99.90;;;;;;12574544;28;20075;-81
2024/01/31 22:32:28;;;;;;;15.77;14.55;;;5.80;99.90;;;;;;12577734;28;20393;-82
2024/01/31 22:38:30;;;;;;;15.00;13.90;;;5.80;99.90;;;;;;12562320;28;20048;-85
2024/01/31 22:44:32;;;;;;;16.30;15.10;;;5.90;99.90;;;;;;12555582;28;20064;-85
2024/01/31 22:50:34;;;;;;;15.27;14.07;;;5.90;99.90;;;;;;12560892;28;20071;-83
2024/01/31 22:56:36;;;;;;;16.75;15.43;;;5.90;99.90;;;;;;12579331;28;20410;-82
2024/01/31 23:02:39;;;;;;;15.77;14.57;;;5.90;99.90;;;;;;12572134;28;20144;-82
2024/01/31 23:08:40;;;;;;;15.88;14.77;;;6.10;99.90;;;;;;12578954;28;20041;-78
2024/01/31 23:14:45;;;;;;;16.00;14.73;;;6.00;99.90;;;;;;12549202;28;20118;-78
2024/01/31 23:20:47;;;;;;;17.67;16.27;;;6.10;99.90;;;;;;12582162;28;20060;-78
2024/01/31 23:26:49;;;;;;;16.90;15.68;;;6.10;99.90;;;;;;12566671;28;20048;-80
2024/01/31 23:32:51;;;;;;;17.48;15.88;;;6.10;99.90;;;;;;12574319;28;20049;-78
2024/01/31 23:38:53;;;;;;;19.42;17.85;;;6.10;99.90;;;;;;12585420;28;20060;-77
2024/01/31 23:44:55;;;;;;;19.15;17.42;;;6.20;99.90;;;;;;12557501;28;20075;-78
2024/01/31 23:50:57;;;;;;;19.63;18.13;;;6.20;99.90;;;;;;12573710;28;20053;-79
2024/01/31 23:56:59;;;;;;;20.70;18.88;;;6.30;99.90;;;;;;12627199;28;20149;-79
